sensor_id;sensor_type;location;lat;lon;timestamp;temperature;humidity
54846;DHT22;53889;50.084;8.646;2023-03-21T00:02:09;10.70;99.90
54846;DHT22;53889;50.084;8.646;2023-03-21T00:04:36;10.60;99.90
54846;DHT22;53889;50.084;8.646;2023-03-21T00:07:02;10.60;99.90
54846;DHT22;53889;50.084;8.646;2023-03-21T00:09:30;10.60;99.90
54846;DHT22;53889;50.084;8.646;2023-03-21T00:11:57;10.60;99.90
54846;DHT22;53889;50.084;8.646;2023-03-21T00:14:26;10.70;99.90
54846;DHT22;53889;50.084;8.646;2023-03-21T00:16:55;10.70;99.90
54846;DHT22;53889;50.084;8.646;2023-03-21T00:19:22;10.70;99.90
54846;DHT22;53889;50.084;8.646;2023-03-21T00:21:50;10.60;99.90
54846;DHT22;53889;50.084;8.646;2023-03-21T00:24:20;10.40;99.90
54846;DHT22;53889;50.084;8.646;2023-03-21T00:26:48;10.60;99.90
54846;DHT22;53889;50.084;8.646;2023-03-21T00:29:15;10.60;99.90
54846;DHT22;53889;50.084;8.646;2023-03-21T00:31:45;10.60;99.90
54846;DHT22;53889;50.084;8.646;2023-03-21T00:34:12;10.70;99.90
54846;DHT22;53889;50.084;8.646;2023-03-21T00:36:38;10.70;99.90
54846;DHT22;53889;50.084;8.646;2023-03-21T00:39:06;10.70;99.90
54846;DHT22;53889;50.084;8.646;2023-03-21T00:41:33;10.40;99.90
54846;DHT22;53889;50.084;8.646;2023-03-21T00:44:01;10.40;99.90
54846;DHT22;53889;50.084;8.646;2023-03-21T00:46:28;10.30;99.90
54846;DHT22;53889;50.084;8.646;2023-03-21T00:48:55;10.30;99.90
54846;DHT22;53889;50.084;8.646;2023-03-21T00:51:22;10.40;99.90
54846;DHT22;53889;50.084;8.646;2023-03-21T00:53:53;10.50;99.90
54846;DHT22;53889;50.084;8.646;2023-03-21T00:56:20;10.40;99.90
54846;DHT22;53889;50.084;8.646;2023-03-21T00:58:47;10.50;99.90
54846;DHT22;53889;50.084;8.646;2023-03-21T01:01:16;10.50;99.90
54846;DHT22;53889;50.084;8.646;2023-03-21T01:03:43;10.50;99.90
54846;DHT22;53889;50.084;8.646;2023-03-21T01:06:12;10.30;99.90
54846;DHT22;53889;50.084;8.646;2023-03-21T01:08:44;10.20;99.90
54846;DHT22;53889;50.084;8.646;2023-03-21T01:11:15;10.20;99.90
54846;DHT22;53889;50.084;8.646;2023-03-21T01:13:44;10.10;99.90
54846;DHT22;53889;50.084;8.646;2023-03-21T01:16:11;10.10;99.90
54846;DHT22;53889;50.084;8.646;2023-03-21T01:18:40;10.20;99.90
54846;DHT22;53889;50.084;8.646;2023-03-21T01:21:09;10.20;99.90
54846;DHT22;53889;50.084;8.646;2023-03-21T01:23:38;10.20;99.90
54846;DHT22;53889;50.084;8.646;2023-03-21T01:26:05;10.20;99.90
54846;DHT22;53889;50.084;8.646;2023-03-21T01:28:33;10.00;99.90
54846;DHT22;53889;50.084;8.646;2023-03-21T01:31:01;10.10;99.90
54846;DHT22;53889;50.084;8.646;2023-03-21T01:33:29;10.10;99.90
54846;DHT22;53889;50.084;8.646;2023-03-21T01:35:57;10.10;99.90
54846;DHT22;53889;50.084;8.646;2023-03-21T01:38:27;10.20;99.90
54846;DHT22;53889;50.084;8.646;2023-03-21T01:40:54;10.10;99.90
54846;DHT22;53889;50.084;8.646;2023-03-21T01:43:30;10.10;99.90
54846;DHT22;53889;50.084;8.646;2023-03-21T01:46:21;10.10;99.90
54846;DHT22;53889;50.084;8.646;2023-03-21T01:49:09;10.00;99.90
54846;DHT22;53889;50.084;8.646;2023-03-21T01:51:41;10.00;99.90
54846;DHT22;53889;50.084;8.646;2023-03-21T01:54:14;9.90;99.90
54846;DHT22;53889;50.084;8.646;2023-03-21T01:56:44;9.80;99.90
54846;DHT22;53889;50.084;8.646;2023-03-21T01:59:18;9.80;99.90
54846;DHT22;53889;50.084;8.646;2023-03-21T02:02:08;9.80;99.90
54846;DHT22;53889;50.084;8.646;2023-03-21T02:04:47;9.80;99.90
54846;DHT22;53889;50.084;8.646;2023-03-21T02:07:24;9.80;99.90
54846;DHT22;53889;50.084;8.646;2023-03-21T02:09:58;9.80;99.90
54846;DHT22;53889;50.084;8.646;2023-03-21T02:12:25;9.80;99.90
54846;DHT22;53889;50.084;8.646;2023-03-21T02:14:52;9.80;99.90
54846;DHT22;53889;50.084;8.646;2023-03-21T02:17:34;9.80;99.90
54846;DHT22;53889;50.084;8.646;2023-03-21T02:26:45;9.60;99.90
54846;DHT22;53889;50.084;8.646;2023-03-21T02:29:35;9.50;99.90
54846;DHT22;53889;50.084;8.646;2023-03-21T02:32:10;9.40;99.90
54846;DHT22;53889;50.084;8.646;2023-03-21T02:35:03;9.30;99.90
54846;DHT22;53889;50.084;8.646;2023-03-21T02:37:39;9.20;99.90
54846;DHT22;53889;50.084;8.646;2023-03-21T02:40:11;9.30;99.90
54846;DHT22;53889;50.084;8.646;2023-03-21T02:42:48;9.20;99.90
54846;DHT22;53889;50.084;8.646;2023-03-21T02:45:21;9.20;99.90
54846;DHT22;53889;50.084;8.646;2023-03-21T02:47:58;9.20;99.90
54846;DHT22;53889;50.084;8.646;2023-03-21T02:50:33;9.20;99.90
54846;DHT22;53889;50.084;8.646;2023-03-21T02:53:06;9.20;99.90
54846;DHT22;53889;50.084;8.646;2023-03-21T02:55:35;9.10;99.90
54846;DHT22;53889;50.084;8.646;2023-03-21T02:58:06;9.00;99.90
54846;DHT22;53889;50.084;8.646;2023-03-21T03:00:33;9.10;99.90
54846;DHT22;53889;50.084;8.646;2023-03-21T03:03:02;9.10;99.90
54846;DHT22;53889;50.084;8.646;2023-03-21T03:05:33;9.10;99.90
54846;DHT22;53889;50.084;8.646;2023-03-21T03:08:14;9.10;99.90
54846;DHT22;53889;50.084;8.646;2023-03-21T03:10:54;8.90;99.90
54846;DHT22;53889;50.084;8.646;2023-03-21T03:13:34;8.90;99.90
54846;DHT22;53889;50.084;8.646;2023-03-21T03:16:12;8.90;99.90
54846;DHT22;53889;50.084;8.646;2023-03-21T03:18:49;8.80;99.90
54846;DHT22;53889;50.084;8.646;2023-03-21T03:21:20;8.80;99.90
54846;DHT22;53889;50.084;8.646;2023-03-21T03:23:52;8.70;99.90
54846;DHT22;53889;50.084;8.646;2023-03-21T03:26:23;8.80;99.90
54846;DHT22;53889;50.084;8.646;2023-03-21T03:28:57;8.80;99.90
54846;DHT22;53889;50.084;8.646;2023-03-21T03:31:31;8.80;99.90
54846;DHT22;53889;50.084;8.646;2023-03-21T03:34:02;8.80;99.90
54846;DHT22;53889;50.084;8.646;2023-03-21T03:36:35;8.80;99.90
54846;DHT22;53889;50.084;8.646;2023-03-21T03:39:11;8.70;99.90
54846;DHT22;53889;50.084;8.646;2023-03-21T03:41:45;8.70;99.90
54846;DHT22;53889;50.084;8.646;2023-03-21T03:44:12;8.60;99.90
54846;DHT22;53889;50.084;8.646;2023-03-21T03:49:22;8.50;99.90
54846;DHT22;53889;50.084;8.646;2023-03-21T03:51:53;8.50;99.90
54846;DHT22;53889;50.084;8.646;2023-03-21T03:54:33;8.40;99.90
54846;DHT22;53889;50.084;8.646;2023-03-21T03:57:02;8.40;99.90
54846;DHT22;53889;50.084;8.646;2023-03-21T03:59:29;8.30;99.90
54846;DHT22;53889;50.084;8.646;2023-03-21T04:02:25;8.30;99.90
54846;DHT22;53889;50.084;8.646;2023-03-21T04:04:53;8.30;99.90
54846;DHT22;53889;50.084;8.646;2023-03-21T04:07:22;8.30;99.90
54846;DHT22;53889;50.084;8.646;2023-03-21T04:09:52;8.30;99.90
54846;DHT22;53889;50.084;8.646;2023-03-21T04:12:20;8.30;99.90
54846;DHT22;53889;50.084;8.646;2023-03-21T04:15:02;8.30;99.90
54846;DHT22;53889;50.084;8.646;2023-03-21T04:17:29;8.30;99.90
54846;DHT22;53889;50.084;8.646;2023-03-21T04:19:57;8.40;99.90
54846;DHT22;53889;50.084;8.646;2023-03-21T04:22:24;8.40;99.90
54846;DHT22;53889;50.084;8.646;2023-03-21T04:24:53;8.30;99.90
54846;DHT22;53889;50.084;8.646;2023-03-21T04:27:20;8.40;99.90
54846;DHT22;53889;50.084;8.646;2023-03-21T04:30:06;8.30;99.90
54846;DHT22;53889;50.084;8.646;2023-03-21T04:32:47;8.30;99.90
54846;DHT22;53889;50.084;8.646;2023-03-21T04:35:21;8.10;99.90
54846;DHT22;53889;50.084;8.646;2023-03-21T04:37:48;8.10;99.90
54846;DHT22;53889;50.084;8.646;2023-03-21T04:40:16;8.10;99.90
54846;DHT22;53889;50.084;8.646;2023-03-21T04:42:43;8.10;99.90
54846;DHT22;53889;50.084;8.646;2023-03-21T04:45:11;8.20;99.90
54846;DHT22;53889;50.084;8.646;2023-03-21T04:47:38;8.20;99.90
54846;DHT22;53889;50.084;8.646;2023-03-21T04:50:06;8.20;99.90
54846;DHT22;53889;50.084;8.646;2023-03-21T04:52:32;8.20;99.90
54846;DHT22;53889;50.084;8.646;2023-03-21T04:54:59;8.20;99.90
54846;DHT22;53889;50.084;8.646;2023-03-21T04:57:27;8.10;99.90
54846;DHT22;53889;50.084;8.646;2023-03-21T04:59:54;8.00;99.90
54846;DHT22;53889;50.084;8.646;2023-03-21T05:02:21;7.90;99.90
54846;DHT22;53889;50.084;8.646;2023-03-21T05:04:47;8.30;99.90
54846;DHT22;53889;50.084;8.646;2023-03-21T05:07:14;8.00;99.90
54846;DHT22;53889;50.084;8.646;2023-03-21T05:09:41;8.10;99.90
54846;DHT22;53889;50.084;8.646;2023-03-21T05:12:07;8.10;99.90
54846;DHT22;53889;50.084;8.646;2023-03-21T05:14:36;8.20;99.90
54846;DHT22;53889;50.084;8.646;2023-03-21T05:17:04;8.20;99.90
54846;DHT22;53889;50.084;8.646;2023-03-21T05:19:31;8.10;99.90
54846;DHT22;53889;50.084;8.646;2023-03-21T05:22:02;8.10;99.90
54846;DHT22;53889;50.084;8.646;2023-03-21T05:24:30;8.10;99.90
54846;DHT22;53889;50.084;8.646;2023-03-21T05:26:58;8.10;99.90
54846;DHT22;53889;50.084;8.646;2023-03-21T05:29:28;8.10;99.90
54846;DHT22;53889;50.084;8.646;2023-03-21T05:32:01;8.10;99.90
54846;DHT22;53889;50.084;8.646;2023-03-21T05:34:28;8.10;99.90
54846;DHT22;53889;50.084;8.646;2023-03-21T05:36:55;8.10;99.90
54846;DHT22;53889;50.084;8.646;2023-03-21T05:39:25;8.20;99.90
54846;DHT22;53889;50.084;8.646;2023-03-21T05:42:02;8.20;99.90
54846;DHT22;53889;50.084;8.646;2023-03-21T05:44:29;8.30;99.90
54846;DHT22;53889;50.084;8.646;2023-03-21T05:46:57;8.30;99.90
54846;DHT22;53889;50.084;8.646;2023-03-21T05:49:31;8.40;99.90
54846;DHT22;53889;50.084;8.646;2023-03-21T05:52:00;8.50;99.90
54846;DHT22;53889;50.084;8.646;2023-03-21T05:54:27;8.50;99.90
54846;DHT22;53889;50.084;8.646;2023-03-21T05:56:54;8.60;99.90
54846;DHT22;53889;50.084;8.646;2023-03-21T05:59:40;8.70;99.90
54846;DHT22;53889;50.084;8.646;2023-03-21T06:02:07;8.70;99.90
54846;DHT22;53889;50.084;8.646;2023-03-21T06:04:35;8.80;99.90
54846;DHT22;53889;50.084;8.646;2023-03-21T06:07:02;8.90;99.90
54846;DHT22;53889;50.084;8.646;2023-03-21T06:09:29;9.00;99.90
54846;DHT22;53889;50.084;8.646;2023-03-21T06:11:59;9.00;99.90
54846;DHT22;53889;50.084;8.646;2023-03-21T06:14:46;9.10;99.90
54846;DHT22;53889;50.084;8.646;2023-03-21T06:17:18;9.00;99.90
54846;DHT22;53889;50.084;8.646;2023-03-21T06:19:54;9.00;99.90
54846;DHT22;53889;50.084;8.646;2023-03-21T06:22:27;9.00;99.90
54846;DHT22;53889;50.084;8.646;2023-03-21T06:24:54;9.10;99.90
54846;DHT22;53889;50.084;8.646;2023-03-21T06:27:22;9.20;99.90
54846;DHT22;53889;50.084;8.646;2023-03-21T06:29:52;9.10;99.90
54846;DHT22;53889;50.084;8.646;2023-03-21T06:32:19;9.10;99.90
54846;DHT22;53889;50.084;8.646;2023-03-21T06:34:50;9.10;99.90
54846;DHT22;53889;50.084;8.646;2023-03-21T06:37:18;9.30;99.90
54846;DHT22;53889;50.084;8.646;2023-03-21T06:39:45;9.50;99.90
54846;DHT22;53889;50.084;8.646;2023-03-21T06:42:12;9.50;99.90
54846;DHT22;53889;50.084;8.646;2023-03-21T06:44:39;9.70;99.90
54846;DHT22;53889;50.084;8.646;2023-03-21T06:47:40;10.00;99.90
54846;DHT22;53889;50.084;8.646;2023-03-21T06:50:15;10.80;99.90
54846;DHT22;53889;50.084;8.646;2023-03-21T06:52:44;11.50;99.90
54846;DHT22;53889;50.084;8.646;2023-03-21T06:55:12;12.20;99.90
54846;DHT22;53889;50.084;8.646;2023-03-21T06:57:39;12.70;99.90
54846;DHT22;53889;50.084;8.646;2023-03-21T07:00:08;13.20;99.90
54846;DHT22;53889;50.084;8.646;2023-03-21T07:02:40;13.60;99.60
54846;DHT22;53889;50.084;8.646;2023-03-21T07:05:12;13.90;98.60
54846;DHT22;53889;50.084;8.646;2023-03-21T07:07:39;13.70;98.60
54846;DHT22;53889;50.084;8.646;2023-03-21T07:10:09;13.20;99.00
54846;DHT22;53889;50.084;8.646;2023-03-21T07:12:47;12.20;99.90
54846;DHT22;53889;50.084;8.646;2023-03-21T07:15:19;11.70;99.90
54846;DHT22;53889;50.084;8.646;2023-03-21T07:17:46;11.70;99.90
54846;DHT22;53889;50.084;8.646;2023-03-21T07:20:13;11.70;99.90
54846;DHT22;53889;50.084;8.646;2023-03-21T07:22:40;12.00;99.90
54846;DHT22;53889;50.084;8.646;2023-03-21T07:25:09;12.20;99.90
54846;DHT22;53889;50.084;8.646;2023-03-21T07:27:39;12.50;99.90
54846;DHT22;53889;50.084;8.646;2023-03-21T07:30:08;12.70;99.90
54846;DHT22;53889;50.084;8.646;2023-03-21T07:32:35;13.10;99.90
54846;DHT22;53889;50.084;8.646;2023-03-21T07:35:04;13.20;99.50
54846;DHT22;53889;50.084;8.646;2023-03-21T07:37:31;13.10;99.60
54846;DHT22;53889;50.084;8.646;2023-03-21T07:39:58;12.90;99.60
54846;DHT22;53889;50.084;8.646;2023-03-21T07:42:26;12.70;99.90
54846;DHT22;53889;50.084;8.646;2023-03-21T07:44:58;12.60;99.90
54846;DHT22;53889;50.084;8.646;2023-03-21T07:47:31;12.70;99.90
54846;DHT22;53889;50.084;8.646;2023-03-21T07:49:58;12.70;99.90
54846;DHT22;53889;50.084;8.646;2023-03-21T07:52:25;12.60;99.90
54846;DHT22;53889;50.084;8.646;2023-03-21T07:54:52;12.40;99.90
54846;DHT22;53889;50.084;8.646;2023-03-21T07:57:19;12.30;99.90
54846;DHT22;53889;50.084;8.646;2023-03-21T07:59:47;12.20;99.90
54846;DHT22;53889;50.084;8.646;2023-03-21T08:02:14;12.10;99.90
54846;DHT22;53889;50.084;8.646;2023-03-21T08:04:41;12.30;99.90
54846;DHT22;53889;50.084;8.646;2023-03-21T08:07:08;12.40;99.90
54846;DHT22;53889;50.084;8.646;2023-03-21T08:09:35;12.70;99.90
54846;DHT22;53889;50.084;8.646;2023-03-21T08:12:02;13.00;99.90
54846;DHT22;53889;50.084;8.646;2023-03-21T08:14:29;13.40;99.90
54846;DHT22;53889;50.084;8.646;2023-03-21T08:16:58;13.60;99.50
54846;DHT22;53889;50.084;8.646;2023-03-21T08:19:24;13.70;99.20
54846;DHT22;53889;50.084;8.646;2023-03-21T08:21:51;13.70;99.20
54846;DHT22;53889;50.084;8.646;2023-03-21T08:24:18;13.90;98.70
54846;DHT22;53889;50.084;8.646;2023-03-21T08:26:45;14.40;98.50
54846;DHT22;53889;50.084;8.646;2023-03-21T08:29:11;14.10;98.30
54846;DHT22;53889;50.084;8.646;2023-03-21T08:31:38;14.30;98.20
54846;DHT22;53889;50.084;8.646;2023-03-21T08:34:07;14.50;97.70
54846;DHT22;53889;50.084;8.646;2023-03-21T08:36:35;15.10;97.30
54846;DHT22;53889;50.084;8.646;2023-03-21T08:39:02;15.30;96.40
54846;DHT22;53889;50.084;8.646;2023-03-21T08:41:30;15.30;96.20
54846;DHT22;53889;50.084;8.646;2023-03-21T08:43:57;15.20;96.40
54846;DHT22;53889;50.084;8.646;2023-03-21T08:46:24;15.10;96.40
54846;DHT22;53889;50.084;8.646;2023-03-21T08:48:51;15.00;96.50
54846;DHT22;53889;50.084;8.646;2023-03-21T08:51:20;14.80;96.70
54846;DHT22;53889;50.084;8.646;2023-03-21T08:53:46;14.40;97.10
54846;DHT22;53889;50.084;8.646;2023-03-21T08:56:15;14.10;97.60
54846;DHT22;53889;50.084;8.646;2023-03-21T08:58:42;14.00;97.80
54846;DHT22;53889;50.084;8.646;2023-03-21T09:01:10;14.10;98.10
54846;DHT22;53889;50.084;8.646;2023-03-21T09:03:40;14.10;97.50
54846;DHT22;53889;50.084;8.646;2023-03-21T09:06:07;14.00;97.80
54846;DHT22;53889;50.084;8.646;2023-03-21T09:08:40;13.90;97.90
54846;DHT22;53889;50.084;8.646;2023-03-21T09:11:07;14.00;98.00
54846;DHT22;53889;50.084;8.646;2023-03-21T09:13:34;14.00;98.10
54846;DHT22;53889;50.084;8.646;2023-03-21T09:16:01;14.20;97.70
54846;DHT22;53889;50.084;8.646;2023-03-21T09:18:29;14.00;98.00
54846;DHT22;53889;50.084;8.646;2023-03-21T09:21:10;14.00;98.00
54846;DHT22;53889;50.084;8.646;2023-03-21T09:23:39;13.90;98.10
54846;DHT22;53889;50.084;8.646;2023-03-21T09:26:06;13.90;98.10
54846;DHT22;53889;50.084;8.646;2023-03-21T09:28:34;13.90;98.10
54846;DHT22;53889;50.084;8.646;2023-03-21T09:31:02;13.70;98.10
54846;DHT22;53889;50.084;8.646;2023-03-21T09:33:30;13.60;98.50
54846;DHT22;53889;50.084;8.646;2023-03-21T09:35:57;13.60;98.50
54846;DHT22;53889;50.084;8.646;2023-03-21T09:38:25;13.60;98.30
54846;DHT22;53889;50.084;8.646;2023-03-21T09:41:04;13.50;98.40
54846;DHT22;53889;50.084;8.646;2023-03-21T09:43:44;13.50;98.60
54846;DHT22;53889;50.084;8.646;2023-03-21T09:46:21;13.60;98.60
54846;DHT22;53889;50.084;8.646;2023-03-21T09:48:55;13.50;98.70
54846;DHT22;53889;50.084;8.646;2023-03-21T09:51:25;13.50;98.70
54846;DHT22;53889;50.084;8.646;2023-03-21T09:53:54;13.50;98.80
54846;DHT22;53889;50.084;8.646;2023-03-21T09:56:24;13.60;98.60
54846;DHT22;53889;50.084;8.646;2023-03-21T09:58:54;13.70;98.40
54846;DHT22;53889;50.084;8.646;2023-03-21T10:01:25;13.50;98.50
54846;DHT22;53889;50.084;8.646;2023-03-21T10:03:55;13.50;98.80
54846;DHT22;53889;50.084;8.646;2023-03-21T10:06:24;13.60;98.80
54846;DHT22;53889;50.084;8.646;2023-03-21T10:08:57;13.60;98.70
54846;DHT22;53889;50.084;8.646;2023-03-21T10:11:30;13.80;98.70
54846;DHT22;53889;50.084;8.646;2023-03-21T10:14:00;13.80;98.40
54846;DHT22;53889;50.084;8.646;2023-03-21T10:16:30;13.80;98.50
54846;DHT22;53889;50.084;8.646;2023-03-21T10:18:59;14.10;98.30
54846;DHT22;53889;50.084;8.646;2023-03-21T10:21:28;14.40;97.90
54846;DHT22;53889;50.084;8.646;2023-03-21T10:23:58;14.30;98.10
54846;DHT22;53889;50.084;8.646;2023-03-21T10:26:28;14.20;98.10
54846;DHT22;53889;50.084;8.646;2023-03-21T10:28:58;14.10;98.20
54846;DHT22;53889;50.084;8.646;2023-03-21T10:31:28;13.90;98.60
54846;DHT22;53889;50.084;8.646;2023-03-21T10:33:57;13.90;98.50
54846;DHT22;53889;50.084;8.646;2023-03-21T10:36:28;14.00;98.60
54846;DHT22;53889;50.084;8.646;2023-03-21T10:38:58;14.00;98.60
54846;DHT22;53889;50.084;8.646;2023-03-21T10:41:26;14.20;98.30
54846;DHT22;53889;50.084;8.646;2023-03-21T10:44:05;14.30;97.90
54846;DHT22;53889;50.084;8.646;2023-03-21T10:46:38;14.10;97.90
54846;DHT22;53889;50.084;8.646;2023-03-21T10:49:17;14.10;98.40
54846;DHT22;53889;50.084;8.646;2023-03-21T10:51:47;14.00;99.20
54846;DHT22;53889;50.084;8.646;2023-03-21T10:54:17;13.80;99.60
54846;DHT22;53889;50.084;8.646;2023-03-21T10:56:51;13.70;99.90
54846;DHT22;53889;50.084;8.646;2023-03-21T10:59:20;13.50;99.90
54846;DHT22;53889;50.084;8.646;2023-03-21T11:01:50;13.30;99.90
54846;DHT22;53889;50.084;8.646;2023-03-21T11:04:20;13.30;99.90
54846;DHT22;53889;50.084;8.646;2023-03-21T11:06:51;13.20;99.90
54846;DHT22;53889;50.084;8.646;2023-03-21T11:09:21;13.00;99.90
54846;DHT22;53889;50.084;8.646;2023-03-21T11:11:52;13.00;99.90
54846;DHT22;53889;50.084;8.646;2023-03-21T11:14:31;13.00;99.90
54846;DHT22;53889;50.084;8.646;2023-03-21T11:16:58;12.90;99.90
54846;DHT22;53889;50.084;8.646;2023-03-21T11:19:29;12.90;99.90
54846;DHT22;53889;50.084;8.646;2023-03-21T11:21:57;12.80;99.90
54846;DHT22;53889;50.084;8.646;2023-03-21T11:24:27;12.80;99.90
54846;DHT22;53889;50.084;8.646;2023-03-21T11:26:56;12.90;99.90
54846;DHT22;53889;50.084;8.646;2023-03-21T11:29:29;12.90;99.90
54846;DHT22;53889;50.084;8.646;2023-03-21T11:31:57;12.80;99.90
54846;DHT22;53889;50.084;8.646;2023-03-21T11:34:32;12.70;99.90
54846;DHT22;53889;50.084;8.646;2023-03-21T11:37:01;12.70;99.90
54846;DHT22;53889;50.084;8.646;2023-03-21T11:39:34;12.50;99.90
54846;DHT22;53889;50.084;8.646;2023-03-21T11:42:08;12.60;99.90
54846;DHT22;53889;50.084;8.646;2023-03-21T11:44:58;12.70;99.90
54846;DHT22;53889;50.084;8.646;2023-03-21T11:47:26;12.80;99.90
54846;DHT22;53889;50.084;8.646;2023-03-21T11:49:52;12.80;99.90
54846;DHT22;53889;50.084;8.646;2023-03-21T11:52:25;12.80;99.90
54846;DHT22;53889;50.084;8.646;2023-03-21T11:57:50;12.90;99.90
54846;DHT22;53889;50.084;8.646;2023-03-21T12:00:23;12.70;99.90
54846;DHT22;53889;50.084;8.646;2023-03-21T12:03:16;12.70;99.90
54846;DHT22;53889;50.084;8.646;2023-03-21T12:05:52;12.60;99.90
54846;DHT22;53889;50.084;8.646;2023-03-21T12:08:25;12.40;99.90
54846;DHT22;53889;50.084;8.646;2023-03-21T12:11:01;12.30;99.90
54846;DHT22;53889;50.084;8.646;2023-03-21T12:13:43;12.30;99.90
54846;DHT22;53889;50.084;8.646;2023-03-21T12:16:22;12.30;99.90
54846;DHT22;53889;50.084;8.646;2023-03-21T12:19:00;12.10;99.90
54846;DHT22;53889;50.084;8.646;2023-03-21T12:21:36;12.20;99.90
54846;DHT22;53889;50.084;8.646;2023-03-21T12:24:08;12.30;99.90
54846;DHT22;53889;50.084;8.646;2023-03-21T12:26:41;12.50;99.90
54846;DHT22;53889;50.084;8.646;2023-03-21T12:29:21;12.60;99.90
54846;DHT22;53889;50.084;8.646;2023-03-21T12:32:02;12.70;99.90
54846;DHT22;53889;50.084;8.646;2023-03-21T12:34:48;12.90;99.90
54846;DHT22;53889;50.084;8.646;2023-03-21T12:37:28;13.10;99.90
54846;DHT22;53889;50.084;8.646;2023-03-21T12:40:06;13.10;99.90
54846;DHT22;53889;50.084;8.646;2023-03-21T12:42:47;13.10;99.90
54846;DHT22;53889;50.084;8.646;2023-03-21T12:45:20;12.90;99.90
54846;DHT22;53889;50.084;8.646;2023-03-21T12:47:52;12.70;99.90
54846;DHT22;53889;50.084;8.646;2023-03-21T12:50:24;12.60;99.90
54846;DHT22;53889;50.084;8.646;2023-03-21T12:52:56;12.70;99.90
54846;DHT22;53889;50.084;8.646;2023-03-21T12:55:25;12.70;99.90
54846;DHT22;53889;50.084;8.646;2023-03-21T12:57:57;12.60;99.90
54846;DHT22;53889;50.084;8.646;2023-03-21T13:00:34;12.50;99.90
54846;DHT22;53889;50.084;8.646;2023-03-21T13:03:04;12.50;99.90
54846;DHT22;53889;50.084;8.646;2023-03-21T13:05:37;12.50;99.90
54846;DHT22;53889;50.084;8.646;2023-03-21T13:08:10;12.40;99.90
54846;DHT22;53889;50.084;8.646;2023-03-21T13:10:43;12.40;99.90
54846;DHT22;53889;50.084;8.646;2023-03-21T13:13:18;12.50;99.90
54846;DHT22;53889;50.084;8.646;2023-03-21T13:15:54;12.30;99.90
54846;DHT22;53889;50.084;8.646;2023-03-21T13:18:32;12.30;99.90
54846;DHT22;53889;50.084;8.646;2023-03-21T13:21:04;12.20;99.90
54846;DHT22;53889;50.084;8.646;2023-03-21T13:23:37;12.20;99.90
54846;DHT22;53889;50.084;8.646;2023-03-21T13:26:08;12.40;99.90
54846;DHT22;53889;50.084;8.646;2023-03-21T13:28:38;12.20;99.90
54846;DHT22;53889;50.084;8.646;2023-03-21T13:31:19;12.30;99.90
54846;DHT22;53889;50.084;8.646;2023-03-21T13:33:47;12.30;99.90
54846;DHT22;53889;50.084;8.646;2023-03-21T13:36:17;12.30;99.90
54846;DHT22;53889;50.084;8.646;2023-03-21T13:38:49;12.40;99.90
54846;DHT22;53889;50.084;8.646;2023-03-21T13:41:19;12.40;99.90
54846;DHT22;53889;50.084;8.646;2023-03-21T13:43:52;12.50;99.90
54846;DHT22;53889;50.084;8.646;2023-03-21T13:46:36;12.50;99.90
54846;DHT22;53889;50.084;8.646;2023-03-21T13:49:17;12.30;99.90
54846;DHT22;53889;50.084;8.646;2023-03-21T13:51:52;12.30;99.90
54846;DHT22;53889;50.084;8.646;2023-03-21T13:54:22;12.20;99.90
54846;DHT22;53889;50.084;8.646;2023-03-21T13:56:51;12.10;99.90
54846;DHT22;53889;50.084;8.646;2023-03-21T13:59:35;12.10;99.90
54846;DHT22;53889;50.084;8.646;2023-03-21T14:02:21;12.10;99.90
54846;DHT22;53889;50.084;8.646;2023-03-21T14:04:55;12.00;99.90
54846;DHT22;53889;50.084;8.646;2023-03-21T14:07:25;12.10;99.90
54846;DHT22;53889;50.084;8.646;2023-03-21T14:09:54;12.00;99.90
54846;DHT22;53889;50.084;8.646;2023-03-21T14:12:24;11.90;99.90
54846;DHT22;53889;50.084;8.646;2023-03-21T14:14:56;12.00;99.90
54846;DHT22;53889;50.084;8.646;2023-03-21T14:17:27;12.00;99.90
54846;DHT22;53889;50.084;8.646;2023-03-21T14:19:57;12.00;99.90
54846;DHT22;53889;50.084;8.646;2023-03-21T14:22:25;11.90;99.90
54846;DHT22;53889;50.084;8.646;2023-03-21T14:24:56;11.80;99.90
54846;DHT22;53889;50.084;8.646;2023-03-21T14:27:26;11.90;99.90
54846;DHT22;53889;50.084;8.646;2023-03-21T14:29:54;11.80;99.90
54846;DHT22;53889;50.084;8.646;2023-03-21T14:32:22;11.70;99.90
54846;DHT22;53889;50.084;8.646;2023-03-21T14:34:53;11.70;99.90
54846;DHT22;53889;50.084;8.646;2023-03-21T14:37:28;11.60;99.90
54846;DHT22;53889;50.084;8.646;2023-03-21T14:39:57;11.60;99.90
54846;DHT22;53889;50.084;8.646;2023-03-21T14:42:25;11.60;99.90
54846;DHT22;53889;50.084;8.646;2023-03-21T14:44:52;11.70;99.90
54846;DHT22;53889;50.084;8.646;2023-03-21T14:47:22;11.60;99.90
54846;DHT22;53889;50.084;8.646;2023-03-21T14:49:49;11.60;99.90
54846;DHT22;53889;50.084;8.646;2023-03-21T14:52:22;11.60;99.90
54846;DHT22;53889;50.084;8.646;2023-03-21T14:54:50;11.60;99.90
54846;DHT22;53889;50.084;8.646;2023-03-21T14:57:20;11.60;99.90
54846;DHT22;53889;50.084;8.646;2023-03-21T14:59:49;11.50;99.90
54846;DHT22;53889;50.084;8.646;2023-03-21T15:02:21;11.50;99.90
54846;DHT22;53889;50.084;8.646;2023-03-21T15:04:50;11.60;99.90
54846;DHT22;53889;50.084;8.646;2023-03-21T15:07:28;11.50;99.90
54846;DHT22;53889;50.084;8.646;2023-03-21T15:09:56;11.70;99.90
54846;DHT22;53889;50.084;8.646;2023-03-21T15:12:25;11.60;99.90
54846;DHT22;53889;50.084;8.646;2023-03-21T15:14:52;11.60;99.90
54846;DHT22;53889;50.084;8.646;2023-03-21T15:17:20;11.70;99.90
54846;DHT22;53889;50.084;8.646;2023-03-21T15:19:47;11.80;99.90
54846;DHT22;53889;50.084;8.646;2023-03-21T15:22:21;11.80;99.90
54846;DHT22;53889;50.084;8.646;2023-03-21T15:24:54;11.90;99.90
54846;DHT22;53889;50.084;8.646;2023-03-21T15:27:23;11.90;99.90
54846;DHT22;53889;50.084;8.646;2023-03-21T15:29:51;11.90;99.90
54846;DHT22;53889;50.084;8.646;2023-03-21T15:32:21;11.70;99.90
54846;DHT22;53889;50.084;8.646;2023-03-21T15:34:50;11.50;99.90
54846;DHT22;53889;50.084;8.646;2023-03-21T15:37:21;11.50;99.90
54846;DHT22;53889;50.084;8.646;2023-03-21T15:39:48;11.60;99.90
54846;DHT22;53889;50.084;8.646;2023-03-21T15:42:26;11.60;99.90
54846;DHT22;53889;50.084;8.646;2023-03-21T15:44:55;11.70;99.90
54846;DHT22;53889;50.084;8.646;2023-03-21T15:47:38;11.80;99.90
54846;DHT22;53889;50.084;8.646;2023-03-21T15:50:07;11.80;99.90
54846;DHT22;53889;50.084;8.646;2023-03-21T15:52:36;11.80;99.90
54846;DHT22;53889;50.084;8.646;2023-03-21T15:55:16;11.70;99.90
54846;DHT22;53889;50.084;8.646;2023-03-21T15:57:48;11.70;99.90
54846;DHT22;53889;50.084;8.646;2023-03-21T16:00:21;11.70;99.90
54846;DHT22;53889;50.084;8.646;2023-03-21T16:02:54;11.80;99.90
54846;DHT22;53889;50.084;8.646;2023-03-21T16:05:25;11.80;99.90
54846;DHT22;53889;50.084;8.646;2023-03-21T16:07:56;11.80;99.90
54846;DHT22;53889;50.084;8.646;2023-03-21T16:10:28;11.90;99.90
54846;DHT22;53889;50.084;8.646;2023-03-21T16:12:57;11.90;99.90